Time;durP1;ratioP1;P1;durP2;ratioP2;P2;SDS_P1;SDS_P2;PMS_P1;PMS_P2;Temp;Humidity;BMP_temperature;BMP_pressure;BME280_temperature;BME280_humidity;BME280_pressure;Samples;Min_cycle;Max_cycle;Signal;HPM_P1;HPM_P2
2021/01/24 00:02:12;;;;;;;5.43;2.47;;;;;;;11.67;66.31;98536.03;5054719;28;20033;-88
2021/01/24 00:04:37;;;;;;;9.13;3.08;;;;;;;11.67;67.03;98531.56;5054607;28;20025;-88
2021/01/24 00:07:03;;;;;;;9.68;3.42;;;;;;;11.69;66.88;98537.44;5054632;28;20045;-86
2021/01/24 00:09:29;;;;;;;9.43;2.47;;;;;;;10.74;66.99;98385.72;5054576;28;20017;-87
2021/01/24 00:11:54;;;;;;;5.57;2.72;;;;;;;11.73;67.62;98540.47;5054490;28;20028;-87
2021/01/24 00:14:20;;;;;;;6.10;3.10;;;;;;;11.52;67.67;98525.72;5036789;28;20029;-86
2021/01/24 00:16:45;;;;;;;12.80;3.63;;;;;;;11.42;67.78;98514.78;5036817;28;20488;-78
2021/01/24 00:19:10;;;;;;;6.63;2.60;;;;;;;11.21;68.31;98478.03;5054439;28;20033;-88
2021/01/24 00:21:36;;;;;;;9.02;3.05;;;;;;;11.60;69.19;98541.34;5054519;28;20033;-85
2021/01/24 00:24:02;;;;;;;10.30;3.60;;;;;;;10.75;69.23;98400.53;5054502;28;20032;-81
2021/01/24 00:26:27;;;;;;;7.85;3.58;;;;;;;11.49;69.71;98522.69;5054399;28;20040;-86
2021/01/24 00:28:52;;;;;;;9.10;3.35;;;;;;;11.47;70.18;98517.59;5054217;28;20025;-77
2021/01/24 00:31:18;;;;;;;9.38;3.85;;;;;;;11.39;69.96;98517.81;5055202;28;20059;-82
2021/01/24 00:33:43;;;;;;;13.35;4.32;;;;;;;11.38;70.23;98511.72;5057048;28;20033;-80
2021/01/24 00:36:09;;;;;;;10.68;3.90;;;;;;;11.27;69.64;98488.59;5039710;28;20363;-82
2021/01/24 00:38:34;;;;;;;6.75;3.58;;;;;;;11.19;70.79;98483.53;5056851;28;20059;-79
2021/01/24 00:41:04;;;;;;;9.60;3.72;;;;;;;11.35;70.16;98514.78;5054650;28;20079;-82
2021/01/24 00:43:30;;;;;;;8.45;3.67;;;;;;;11.32;70.14;98498.53;5054241;28;20029;-81
2021/01/24 00:45:55;;;;;;;7.63;2.90;;;;;;;10.93;70.99;98447.41;5054087;28;20024;-81
2021/01/24 00:48:21;;;;;;;9.35;2.80;;;;;;;11.26;71.42;98475.59;5036637;28;20027;-82
2021/01/24 00:50:46;;;;;;;7.07;3.30;;;;;;;10.94;71.81;98427.91;5036626;28;20371;-79
2021/01/24 00:53:12;;;;;;;6.78;2.85;;;;;;;10.79;72.13;98401.75;5036556;28;20021;-84
2021/01/24 00:55:37;;;;;;;6.90;2.88;;;;;;;10.87;72.54;98415.75;5053946;28;20029;-78
2021/01/24 00:58:02;;;;;;;11.40;3.08;;;;;;;11.07;72.52;98464.03;5054222;28;20029;-82
2021/01/24 01:00:28;;;;;;;10.77;3.15;;;;;;;10.98;73.27;98444.97;5054013;28;20040;-80
2021/01/24 01:02:53;;;;;;;6.80;2.28;;;;;;;10.44;72.42;98345.78;5056992;28;20033;-86
2021/01/24 01:05:19;;;;;;;9.07;2.85;;;;;;;10.89;72.76;98405.78;5057804;28;20473;-83
2021/01/24 01:07:44;;;;;;;4.10;2.40;;;;;;;10.46;71.87;98335.03;5057735;28;20028;-84
2021/01/24 01:10:10;;;;;;;9.20;2.50;;;;;;;11.25;72.01;98445.72;5057765;28;20036;-85
2021/01/24 01:12:36;;;;;;;7.93;2.50;;;;;;;10.88;72.17;98388.31;5039961;28;20028;-85
2021/01/24 01:15:03;;;;;;;4.10;2.25;;;;;;;11.19;71.66;98435.97;5039994;28;20482;-88
2021/01/24 01:17:28;;;;;;;6.50;2.65;;;;;;;11.31;71.62;98452.81;5039962;28;20078;-83
2021/01/24 01:19:54;;;;;;;11.13;3.03;;;;;;;11.35;71.44;98451.38;5039845;28;20351;-85
2021/01/24 01:22:19;;;;;;;6.68;3.00;;;;;;;11.34;71.90;98448.94;5039774;28;20116;-84
2021/01/24 01:24:45;;;;;;;5.80;2.17;;;;;;;10.91;71.20;98378.16;5057267;28;20028;-79
2021/01/24 01:27:10;;;;;;;4.22;2.00;;;;;;;10.97;70.92;98371.22;5057451;28;20479;-83
2021/01/24 01:29:36;;;;;;;7.68;2.15;;;;;;;11.36;70.74;98418.63;5039786;28;20054;-79
2021/01/24 01:32:01;;;;;;;6.13;1.90;;;;;;;11.22;70.55;98388.00;5057131;28;20029;-82
2021/01/24 01:34:26;;;;;;;3.88;1.60;;;;;;;10.73;70.11;98318.09;5039408;28;20149;-87
2021/01/24 01:36:52;;;;;;;3.17;1.38;;;;;;;11.40;70.10;98417.19;5057142;28;20037;-86
2021/01/24 01:39:17;;;;;;;5.30;1.70;;;;;;;11.28;69.69;98396.91;5039462;28;20029;-82
2021/01/24 01:41:43;;;;;;;3.67;1.90;;;;;;;11.41;69.81;98400.31;5039263;28;20079;-87
2021/01/24 01:44:08;;;;;;;2.80;1.60;;;;;;;10.97;69.28;98321.03;5056940;28;20036;-79
2021/01/24 01:46:33;;;;;;;2.75;1.58;;;;;;;11.28;69.42;98381.88;5056954;28;20032;-82
2021/01/24 01:48:59;;;;;;;3.15;1.73;;;;;;;11.36;68.77;98394.84;5039204;28;20025;-81
2021/01/24 01:51:25;;;;;;;2.88;1.60;;;;;;;11.44;69.00;98412.28;5056909;28;20104;-78
2021/01/24 01:53:53;;;;;;;4.32;1.48;;;;;;;11.41;68.87;98418.00;5039240;28;20423;-81
2021/01/24 01:56:19;;;;;;;3.55;1.60;;;;;;;11.09;69.26;98359.78;5056818;28;20378;-84
2021/01/24 01:58:44;;;;;;;3.15;1.35;;;;;;;11.43;69.08;98400.09;5039301;28;20025;-82
2021/01/24 02:01:45;;;;;;;4.10;1.48;;;;;;;11.40;68.83;98406.63;5039145;28;20083;-82
2021/01/24 02:04:14;;;;;;;2.90;1.77;;;;;;;10.83;68.95;98312.38;5038934;28;20025;-81
2021/01/24 02:06:56;;;;;;;4.63;1.83;;;;;;;10.64;68.35;98279.75;5056530;28;20033;-82
2021/01/24 02:09:33;;;;;;;2.20;1.67;;;;;;;11.39;68.25;98393.63;5056753;28;20036;-82
2021/01/24 02:12:17;;;;;;;2.25;1.30;;;;;;;11.03;68.18;98349.25;5056364;28;20363;-86
2021/01/24 02:15:01;;;;;;;1.92;1.83;;;;;;;11.37;68.13;98406.22;5055940;28;20041;-82
2021/01/24 02:17:29;;;;;;;1.77;1.50;;;;;;;11.39;68.00;98391.78;5056633;28;20029;-80
2021/01/24 02:19:58;;;;;;;2.03;1.17;;;;;;;11.40;67.86;98384.66;5038729;28;20025;-81
2021/01/24 02:22:28;;;;;;;3.20;1.80;;;;;;;11.40;68.38;98392.59;5038485;28;20032;-81
2021/01/24 02:25:00;;;;;;;4.20;1.70;;;;;;;11.39;68.29;98383.84;5056208;28;20062;-84
2021/01/24 02:27:49;;;;;;;4.18;1.80;;;;;;;11.37;68.42;98385.91;5056592;28;20385;-81
2021/01/24 02:30:25;;;;;;;2.50;1.60;;;;;;;11.29;68.31;98370.28;5056272;28;20094;-88
2021/01/24 02:33:00;;;;;;;2.95;1.60;;;;;;;11.36;68.43;98371.06;5056097;28;20386;-80
2021/01/24 02:35:31;;;;;;;3.00;1.65;;;;;;;11.36;68.00;98386.91;5056105;28;20039;-83
2021/01/24 02:37:58;;;;;;;2.90;1.95;;;;;;;11.36;68.15;98378.19;5055965;28;20137;-84
2021/01/24 02:40:25;;;;;;;4.40;1.90;;;;;;;10.72;68.54;98270.78;5038322;28;20025;-84
2021/01/24 02:42:52;;;;;;;2.80;1.67;;;;;;;10.77;68.81;98278.88;5037974;28;20387;-81
2021/01/24 02:45:18;;;;;;;3.40;1.83;;;;;;;11.22;68.47;98361.59;5038234;28;20095;-82
2021/01/24 02:47:45;;;;;;;4.15;1.65;;;;;;;11.29;68.87;98378.22;5055721;28;20343;-81
2021/01/24 02:50:11;;;;;;;4.13;1.90;;;;;;;11.20;68.41;98346.97;5055825;28;20451;-81
2021/01/24 02:52:37;;;;;;;2.88;2.38;;;;;;;10.90;68.32;98296.50;5056211;28;20461;-76
2021/01/24 02:55:04;;;;;;;3.03;1.48;;;;;;;10.85;68.50;98296.31;5055619;28;20358;-78
2021/01/24 02:57:29;;;;;;;3.53;2.22;;;;;;;10.57;68.29;98259.69;5038061;28;20089;-82
2021/01/24 02:59:55;;;;;;;4.70;2.15;;;;;;;11.26;68.04;98373.34;5055600;28;20063;-80
2021/01/24 03:02:20;;;;;;;6.93;2.72;;;;;;;11.25;68.28;98363.81;5037815;28;20033;-85
2021/01/24 03:04:46;;;;;;;5.10;1.85;;;;;;;11.16;68.36;98346.56;5037713;28;20429;-79
2021/01/24 03:07:11;;;;;;;3.42;2.30;;;;;;;10.65;68.19;98260.25;5055462;28;20090;-84
2021/01/24 03:09:36;;;;;;;4.25;2.30;;;;;;;11.18;68.43;98331.31;5055457;28;20416;-79
2021/01/24 03:12:04;;;;;;;4.40;1.80;;;;;;;11.08;68.47;98317.72;5055249;28;20107;-79
2021/01/24 03:14:32;;;;;;;5.25;1.90;;;;;;;11.19;68.10;98335.59;5055295;28;20036;-83
2021/01/24 03:17:00;;;;;;;6.22;2.55;;;;;;;11.24;67.95;98351.63;5037458;28;20040;-83
2021/01/24 03:19:28;;;;;;;5.57;2.22;;;;;;;11.17;67.86;98342.09;5037739;28;20025;-78
2021/01/24 03:21:55;;;;;;;4.47;2.35;;;;;;;11.28;67.75;98349.38;5055238;28;20052;-85
2021/01/24 03:24:22;;;;;;;6.60;2.17;;;;;;;11.22;67.78;98344.91;5054878;28;20025;-79
2021/01/24 03:26:49;;;;;;;3.13;1.90;;;;;;;11.17;68.18;98364.06;5036747;28;20033;-77
2021/01/24 03:29:14;;;;;;;2.72;1.70;;;;;;;11.02;67.69;98327.31;5055022;28;20127;-84
2021/01/24 03:31:45;;;;;;;3.80;1.88;;;;;;;11.10;67.51;98336.81;5055083;28;20032;-81
2021/01/24 03:34:18;;;;;;;6.65;2.45;;;;;;;10.39;67.66;98228.66;5055155;28;20103;-83
2021/01/24 03:36:46;;;;;;;3.85;2.00;;;;;;;11.20;67.71;98347.78;5055099;28;20029;-79
2021/01/24 03:39:11;;;;;;;6.57;2.97;;;;;;;11.20;67.48;98355.69;5054756;28;20448;-77
2021/01/24 03:41:37;;;;;;;5.57;2.30;;;;;;;11.17;68.09;98358.78;5037130;28;20031;-79
2021/01/24 03:44:02;;;;;;;4.63;2.45;;;;;;;11.18;67.71;98364.84;5054737;28;20044;-76
2021/01/24 03:46:28;;;;;;;5.10;2.60;;;;;;;10.63;67.83;98277.31;5055118;28;20025;-80
2021/01/24 03:48:53;;;;;;;4.85;2.85;;;;;;;11.14;67.09;98348.59;5054655;28;20025;-78
2021/01/24 03:51:19;;;;;;;6.78;2.42;;;;;;;11.16;67.43;98346.56;5037056;28;20025;-79
2021/01/24 03:53:44;;;;;;;4.07;2.00;;;;;;;11.17;67.08;98347.38;5054634;28;20028;-78
2021/01/24 03:56:09;;;;;;;4.15;2.28;;;;;;;10.78;67.33;98277.88;5036972;28;20029;-78
2021/01/24 03:58:35;;;;;;;4.80;2.90;;;;;;;11.13;66.40;98341.69;5037067;28;20067;-78
2021/01/24 04:01:00;;;;;;;6.00;3.17;;;;;;;11.19;66.67;98367.28;5054400;28;20032;-80
2021/01/24 04:03:25;;;;;;;4.78;2.78;;;;;;;10.53;66.67;98261.94;5036898;28;20021;-80
2021/01/24 04:05:51;;;;;;;6.32;2.85;;;;;;;11.18;67.29;98352.47;5054548;28;20034;-78
2021/01/24 04:08:16;;;;;;;5.18;2.72;;;;;;;11.17;66.86;98348.19;5054588;28;20029;-77
2021/01/24 04:10:42;;;;;;;6.15;3.22;;;;;;;10.61;67.10;98264.34;5036793;28;20029;-84
2021/01/24 04:13:07;;;;;;;5.05;2.90;;;;;;;11.14;66.98;98354.69;5036808;28;20044;-78
2021/01/24 04:15:32;;;;;;;6.20;2.67;;;;;;;11.16;67.00;98351.88;5054538;28;20029;-83
2021/01/24 04:17:58;;;;;;;3.10;2.38;;;;;;;11.07;67.43;98345.16;5054215;28;20021;-77
2021/01/24 04:20:23;;;;;;;3.85;2.22;;;;;;;10.85;66.74;98318.25;5054354;28;20116;-81
2021/01/24 04:22:49;;;;;;;4.53;2.47;;;;;;;11.11;66.92;98347.19;5054156;28;20032;-75
2021/01/24 04:25:16;;;;;;;7.22;2.97;;;;;;;11.02;67.39;98331.78;5054445;28;20078;-79
2021/01/24 04:27:42;;;;;;;5.25;2.60;;;;;;;10.96;66.99;98325.50;5054232;28;20029;-77
2021/01/24 04:30:08;;;;;;;4.03;2.85;;;;;;;10.94;67.08;98342.59;5054413;28;20342;-75
2021/01/24 04:32:34;;;;;;;3.30;2.28;;;;;;;11.04;67.45;98364.06;5036513;28;20017;-79
2021/01/24 04:34:59;;;;;;;4.15;2.38;;;;;;;11.04;67.28;98366.72;5036398;28;20347;-77
2021/01/24 04:37:24;;;;;;;5.18;2.30;;;;;;;11.05;67.66;98365.69;5039050;28;20351;-80
2021/01/24 04:39:50;;;;;;;4.03;2.13;;;;;;;10.87;67.09;98329.41;5040462;28;20017;-77
2021/01/24 04:42:15;;;;;;;4.65;2.53;;;;;;;10.93;67.04;98330.41;5040323;28;20036;-80
2021/01/24 04:44:42;;;;;;;4.47;2.45;;;;;;;11.09;66.80;98359.78;5058079;28;20029;-79
2021/01/24 04:47:09;;;;;;;4.85;2.80;;;;;;;11.01;67.12;98362.66;5058030;28;20029;-76
2021/01/24 04:49:35;;;;;;;5.32;2.55;;;;;;;11.07;66.66;98374.22;5040363;28;20029;-79
2021/01/24 04:52:02;;;;;;;5.75;2.20;;;;;;;11.05;67.16;98389.47;5058028;28;20048;-75
2021/01/24 04:54:28;;;;;;;7.05;2.20;;;;;;;10.97;66.75;98379.94;5057992;28;20044;-78
2021/01/24 04:56:54;;;;;;;4.10;2.42;;;;;;;11.00;67.45;98403.31;5057904;28;20395;-76
2021/01/24 04:59:20;;;;;;;3.25;2.33;;;;;;;10.93;67.30;98396.41;5058166;28;20052;-90
2021/01/24 05:01:47;;;;;;;3.15;2.00;;;;;;;10.72;66.88;98366.63;5040298;28;20060;-88
2021/01/24 05:04:12;;;;;;;5.03;2.42;;;;;;;10.96;67.17;98409.22;5057872;28;20108;-87
2021/01/24 05:06:38;;;;;;;3.80;2.45;;;;;;;10.87;67.16;98403.34;5040396;28;20128;-85
2021/01/24 05:09:03;;;;;;;4.40;2.30;;;;;;;10.48;66.88;98348.81;5057942;28;20021;-86
2021/01/24 05:11:29;;;;;;;4.13;2.10;;;;;;;10.70;67.14;98381.88;5040217;28;20439;-86
2021/01/24 05:14:13;;;;;;;5.18;2.40;;;;;;;10.87;66.89;98440.31;5057750;28;20055;-85
2021/01/24 05:16:40;;;;;;;4.22;1.90;;;;;;;10.95;66.80;98426.06;5040340;28;20056;-84
2021/01/24 05:19:06;;;;;;;4.65;1.50;;;;;;;10.43;67.14;98340.72;5039876;28;20110;-80
2021/01/24 05:21:31;;;;;;;4.22;1.95;;;;;;;10.89;66.53;98419.78;5057699;28;20056;-83
2021/01/24 05:23:57;;;;;;;5.57;2.30;;;;;;;10.97;66.73;98445.16;5057585;28;20053;-83
2021/01/24 05:26:25;;;;;;;6.72;3.08;;;;;;;10.87;66.50;98448.25;5057629;28;20450;-81
2021/01/24 05:28:50;;;;;;;9.65;5.07;;;;;;;10.90;66.88;98482.16;5057412;28;20082;-80
2021/01/24 05:31:21;;;;;;;15.32;6.32;;;;;;;10.82;66.75;98482.38;5057358;28;20025;-85
2021/01/24 05:33:46;;;;;;;12.38;5.35;;;;;;;9.73;66.82;98303.41;5039690;28;20424;-85
2021/01/24 05:36:12;;;;;;;8.75;5.57;;;;;;;10.26;67.07;98408.09;5039673;28;20033;-85
2021/01/24 05:38:38;;;;;;;8.20;4.55;;;;;;;10.85;66.67;98507.56;5057147;28;20087;-86
2021/01/24 05:41:12;;;;;;;6.80;4.40;;;;;;;10.83;66.52;98502.47;5039448;28;20025;-90
2021/01/24 05:43:43;;;;;;;5.75;3.75;;;;;;;10.31;67.10;98427.56;5057285;28;20028;-89
2021/01/24 05:46:09;;;;;;;8.40;3.72;;;;;;;10.78;67.24;98494.34;5057043;28;20056;-87
2021/01/24 05:48:36;;;;;;;6.00;3.42;;;;;;;10.72;67.16;98480.16;5055990;28;20056;-87
2021/01/24 05:51:04;;;;;;;6.03;3.90;;;;;;;10.17;67.22;98396.91;5057115;28;20059;-84
2021/01/24 05:53:40;;;;;;;6.55;4.07;;;;;;;10.73;67.27;98496.81;5039497;28;20021;-86
2021/01/24 05:56:16;;;;;;;7.95;4.57;;;;;;;10.70;67.57;98503.31;5056850;28;20350;-83
2021/01/24 05:58:42;;;;;;;7.68;4.40;;;;;;;10.65;67.25;98513.66;5056846;28;20025;-83
2021/01/24 06:01:07;;;;;;;17.98;11.55;;;;;;;10.12;67.42;98465.28;5056696;28;20033;-86
2021/01/24 06:03:34;;;;;;;15.57;11.70;;;;;;;10.57;66.90;98534.97;5056723;28;20025;-88
2021/01/24 06:06:00;;;;;;;16.55;11.05;;;;;;;10.55;67.41;98533.56;5056622;28;20423;-88
2021/01/24 06:08:25;;;;;;;17.80;12.15;;;;;;;9.64;67.45;98396.03;5056804;28;20122;-85
2021/01/24 06:10:52;;;;;;;20.50;11.80;;;;;;;10.49;67.03;98536.00;5055641;28;20040;-86
2021/01/24 06:13:25;;;;;;;20.45;12.25;;;;;;;10.09;66.81;98473.59;5039052;28;20351;-86
2021/01/24 06:15:52;;;;;;;22.90;14.00;;;;;;;10.51;66.77;98551.63;5056623;28;20036;-88
2021/01/24 06:18:32;;;;;;;23.88;15.30;;;;;;;10.29;67.07;98514.03;5055631;28;20035;-87
2021/01/24 06:21:01;;;;;;;19.38;13.77;;;;;;;10.02;67.42;98463.03;5056473;28;20033;-83
2021/01/24 06:23:34;;;;;;;22.02;15.75;;;;;;;10.44;67.02;98558.72;5038748;28;20025;-84
2021/01/24 06:26:17;;;;;;;22.15;14.75;;;;;;;10.31;67.16;98511.19;5038523;28;20118;-86
2021/01/24 06:28:48;;;;;;;24.75;15.73;;;;;;;10.46;67.15;98532.94;5055436;28;20037;-88
2021/01/24 06:31:18;;;;;;;28.55;18.73;;;;;;;10.11;67.32;98474.19;5038678;28;20420;-85
2021/01/24 06:33:45;;;;;;;30.25;21.30;;;;;;;10.46;67.18;98538.22;5054940;28;20090;-83
2021/01/24 06:36:12;;;;;;;29.48;19.63;;;;;;;10.44;67.87;98527.06;5056420;28;20124;-87
2021/01/24 06:38:39;;;;;;;24.40;16.88;;;;;;;10.33;67.50;98541.63;5055982;28;20043;-87
2021/01/24 06:41:07;;;;;;;27.02;17.60;;;;;;;10.23;67.70;98495.53;5056027;28;20482;-84
2021/01/24 06:43:45;;;;;;;25.85;19.33;;;;;;;10.17;67.71;98495.31;5055971;28;20083;-86
2021/01/24 06:46:28;;;;;;;24.58;16.48;;;;;;;10.36;68.08;98529.84;5056576;28;20443;-83
2021/01/24 06:48:55;;;;;;;25.20;16.05;;;;;;;9.81;67.82;98455.28;5038066;28;20415;-82
2021/01/24 06:51:42;;;;;;;24.38;16.85;;;;;;;10.31;67.64;98532.28;5055863;28;20108;-85
2021/01/24 06:54:25;;;;;;;25.88;19.00;;;;;;;10.30;67.91;98535.94;5054724;28;20017;-87
2021/01/24 06:56:51;;;;;;;31.58;22.23;;;;;;;10.29;68.09;98543.03;5038244;28;20029;-86
2021/01/24 06:59:28;;;;;;;51.33;32.55;;;;;;;10.29;68.29;98547.50;5055855;28;20342;-85
2021/01/24 07:02:19;;;;;;;52.35;34.20;;;;;;;10.17;68.08;98539.34;5055568;28;20033;-83
2021/01/24 07:05:13;;;;;;;53.60;34.88;;;;;;;10.29;67.89;98563.34;5054594;28;20087;-86
2021/01/24 07:07:45;;;;;;;52.22;35.15;;;;;;;10.29;68.13;98560.69;5054618;28;20024;-85
2021/01/24 07:10:39;;;;;;;68.03;45.13;;;;;;;10.31;67.84;98571.88;5055407;28;20498;-85
2021/01/24 07:13:28;;;;;;;88.95;59.15;;;;;;;10.35;67.70;98570.44;5054273;28;20424;-87
2021/01/24 07:15:55;;;;;;;90.57;61.38;;;;;;;10.31;67.67;98553.41;5037812;28;20033;-85
2021/01/24 07:18:21;;;;;;;93.28;63.83;;;;;;;9.83;67.68;98477.81;5055520;28;20083;-85
2021/01/24 07:20:48;;;;;;;90.70;62.08;;;;;;;9.56;67.24;98445.25;5054161;28;20052;-84
2021/01/24 07:23:14;;;;;;;77.25;53.42;;;;;;;10.50;67.19;98594.88;5037652;28;20090;-85
2021/01/24 07:25:40;;;;;;;88.18;59.25;;;;;;;9.88;67.45;98490.38;5055352;28;20020;-85
2021/01/24 07:28:06;;;;;;;92.45;63.90;;;;;;;10.29;67.62;98563.34;5054363;28;20491;-84
2021/01/24 07:30:32;;;;;;;85.13;58.95;;;;;;;10.42;67.04;98571.31;5054206;28;20321;-86
2021/01/24 07:32:57;;;;;;;69.10;51.38;;;;;;;9.99;66.66;98489.81;5054139;28;20036;-83
2021/01/24 07:35:23;;;;;;;67.22;44.80;;;;;;;10.63;66.39;98573.75;5055524;28;20055;-85
2021/01/24 07:37:50;;;;;;;83.60;52.80;;;;;;;10.69;66.52;98578.22;5054894;28;20029;-85
2021/01/24 07:40:16;;;;;;;70.97;46.92;;;;;;;10.73;65.89;98582.09;5055123;28;20056;-84
2021/01/24 07:42:41;;;;;;;64.82;43.83;;;;;;;10.47;65.75;98542.47;5055151;28;20446;-85
2021/01/24 07:45:07;;;;;;;61.53;40.88;;;;;;;10.95;65.46;98589.81;5054827;28;20037;-88
2021/01/24 07:47:33;;;;;;;52.15;34.13;;;;;;;10.98;65.44;98595.50;5054894;28;20033;-85
2021/01/24 07:49:58;;;;;;;18.92;11.90;;;;;;;10.10;64.92;98440.94;5053639;28;20108;-82
2021/01/24 07:52:24;;;;;;;22.65;14.13;;;;;;;9.95;63.84;98413.94;5054743;28;20025;-84
2021/01/24 07:54:50;;;;;;;20.90;15.10;;;;;;;10.71;64.31;98535.78;5054880;28;20028;-83
2021/01/24 07:57:15;;;;;;;14.98;10.55;;;;;;;10.52;63.48;98487.28;5054714;28;20033;-86
2021/01/24 07:59:41;;;;;;;13.10;10.63;;;;;;;11.23;63.65;98584.34;5053850;28;20025;-86
2021/01/24 08:02:06;;;;;;;13.75;8.63;;;;;;;11.39;62.67;98602.41;5054700;28;20056;-79
2021/01/24 08:04:38;;;;;;;9.68;7.28;;;;;;;11.38;62.59;98596.31;5054745;28;20033;-82
2021/01/24 08:07:07;;;;;;;;;;;;;;;11.41;62.54;98603.00;5037304;28;20044;-82
2021/01/24 08:09:34;;;;;;;8.15;5.85;;;;;;;11.53;62.34;98604.00;5054669;28;19913;-80
2021/01/24 08:11:59;;;;;;;8.05;4.85;;;;;;;11.44;62.63;98594.66;5040957;28;20028;-81
2021/01/24 08:14:24;;;;;;;5.85;3.40;;;;;;;11.65;62.06;98612.09;5043678;28;20437;-82
2021/01/24 08:16:51;;;;;;;5.55;4.10;;;;;;;11.43;61.79;98574.53;5043426;28;20495;-84
2021/01/24 08:19:21;;;;;;;7.63;5.32;;;;;;;11.33;61.18;98542.44;5061049;28;20035;-81
2021/01/24 08:21:48;;;;;;;6.07;4.28;;;;;;;11.75;60.81;98609.84;5043436;28;20115;-84
2021/01/24 08:24:14;;;;;;;6.03;3.92;;;;;;;11.87;59.95;98628.53;5060936;28;20029;-82
2021/01/24 08:26:39;;;;;;;7.30;4.93;;;;;;;11.32;60.39;98546.09;5043579;28;20040;-83
2021/01/24 08:29:05;;;;;;;6.80;4.15;;;;;;;11.81;59.93;98614.31;5060999;28;20036;-85
2021/01/24 08:31:33;;;;;;;6.32;4.22;;;;;;;12.03;60.41;98641.34;5061150;28;20029;-83
2021/01/24 08:33:59;;;;;;;5.95;3.35;;;;;;;11.81;59.53;98595.81;5043090;28;20320;-81
2021/01/24 08:36:27;;;;;;;6.25;3.92;;;;;;;12.13;58.67;98635.59;5061075;28;20114;-82
2021/01/24 08:38:58;;;;;;;3.53;2.03;;;;;;;12.04;58.38;98619.97;5060962;28;20064;-77
2021/01/24 08:41:33;;;;;;;3.10;2.20;;;;;;;12.19;57.83;98629.47;5061253;28;20423;-85
2021/01/24 08:44:11;;;;;;;5.75;2.30;;;;;;;12.21;55.64;98616.84;5043017;28;20112;-85
2021/01/24 08:46:45;;;;;;;7.30;4.32;;;;;;;12.26;56.65;98631.06;5061021;28;20085;-84
2021/01/24 08:49:24;;;;;;;5.85;3.60;;;;;;;12.30;57.70;98624.31;5060967;28;20363;-80
2021/01/24 08:51:57;;;;;;;7.20;3.92;;;;;;;12.29;56.82;98617.41;5060887;28;20032;-80
2021/01/24 08:54:31;;;;;;;5.90;3.55;;;;;;;12.08;57.16;98568.25;5043241;28;20028;-84
2021/01/24 08:57:11;;;;;;;5.55;3.78;;;;;;;12.46;56.72;98612.41;5060810;28;20029;-80
2021/01/24 08:59:38;;;;;;;3.90;2.65;;;;;;;12.48;56.38;98606.91;5043070;28;20032;-83
2021/01/24 09:02:04;;;;;;;4.43;3.13;;;;;;;12.50;56.63;98600.38;5060850;28;20043;-80
2021/01/24 09:04:35;;;;;;;4.88;2.90;;;;;;;12.54;56.25;98603.41;5061016;28;20444;-83
2021/01/24 09:07:02;;;;;;;6.03;3.45;;;;;;;12.57;55.80;98603.78;5060691;28;20423;-80
2021/01/24 09:09:28;;;;;;;6.75;4.63;;;;;;;12.65;55.18;98600.91;5060796;28;20492;-82
2021/01/24 09:11:54;;;;;;;8.82;4.82;;;;;;;12.72;55.30;98599.03;5060534;28;20020;-80
2021/01/24 09:14:20;;;;;;;7.72;4.22;;;;;;;12.66;55.58;98575.25;5060595;28;20023;-80
2021/01/24 09:16:45;;;;;;;9.43;5.50;;;;;;;12.65;55.35;98555.09;5060564;28;20028;-79
2021/01/24 09:19:11;;;;;;;6.97;3.42;;;;;;;12.54;54.96;98534.56;5060619;28;20045;-82
2021/01/24 09:21:37;;;;;;;8.30;5.75;;;;;;;12.85;54.72;98566.34;5060787;28;20398;-83
2021/01/24 09:24:03;;;;;;;8.40;4.82;;;;;;;13.03;53.88;98592.88;5039947;28;20090;-81
2021/01/24 09:26:28;;;;;;;11.18;4.95;;;;;;;12.82;54.16;98545.56;5057355;28;20037;-81
2021/01/24 09:28:55;;;;;;;6.57;3.92;;;;;;;13.19;53.50;98602.16;5039439;28;20024;-81
2021/01/24 09:31:20;;;;;;;5.03;3.00;;;;;;;13.27;53.37;98606.38;5039756;28;20028;-79
2021/01/24 09:33:46;;;;;;;3.90;2.72;;;;;;;13.11;53.30;98567.13;5039415;28;20056;-78
2021/01/24 09:36:11;;;;;;;4.57;2.80;;;;;;;13.30;52.84;98582.88;5057139;28;20151;-83
2021/01/24 09:38:36;;;;;;;9.23;4.97;;;;;;;13.42;52.85;98587.50;5056970;28;20351;-81
2021/01/24 09:41:02;;;;;;;7.57;4.68;;;;;;;13.58;52.26;98584.25;5057249;28;20032;-81
2021/01/24 09:43:27;;;;;;;11.98;5.25;;;;;;;13.23;52.03;98523.81;5056835;28;20359;-80
2021/01/24 09:45:53;;;;;;;13.52;5.78;;;;;;;13.70;51.83;98574.53;5056922;28;20061;-80
2021/01/24 09:48:18;;;;;;;9.88;6.55;;;;;;;13.31;51.39;98509.47;5056955;28;20029;-80
2021/01/24 09:50:44;;;;;;;4.57;1.73;;;;;;;13.83;51.09;98603.56;5039311;28;20052;-80
2021/01/24 09:55:34;;;;;;;3.42;2.20;;;;;;;13.95;50.79;98591.16;5063034;23;20056;-81
2021/01/24 09:58:00;;;;;;;2.38;1.58;;;;;;;14.06;50.46;98583.47;5056808;28;20080;-82
2021/01/24 10:00:25;;;;;;;2.47;1.85;;;;;;;14.04;50.54;98567.78;5038973;28;20482;-81
2021/01/24 10:02:51;;;;;;;2.80;1.35;;;;;;;14.12;50.61;98572.81;5038772;28;20021;-79
2021/01/24 10:05:16;;;;;;;3.15;1.77;;;;;;;14.25;50.47;98593.06;5056795;28;20445;-79
2021/01/24 10:07:42;;;;;;;2.22;1.40;;;;;;;14.31;50.32;98597.47;5056633;28;20100;-77
2021/01/24 10:10:08;;;;;;;2.97;1.52;;;;;;;14.29;50.17;98587.06;5056461;28;20029;-80
2021/01/24 10:12:33;;;;;;;2.90;1.70;;;;;;;13.95;50.03;98527.47;5056431;28;20124;-78
2021/01/24 10:14:58;;;;;;;5.18;1.50;;;;;;;14.31;50.19;98582.34;5038481;28;20032;-81
2021/01/24 10:17:24;;;;;;;2.80;1.25;;;;;;;13.93;49.78;98496.88;5056579;28;20028;-77
2021/01/24 10:19:49;;;;;;;2.95;2.05;;;;;;;14.48;50.04;98579.09;5038715;28;20432;-78
2021/01/24 10:22:14;;;;;;;2.33;1.58;;;;;;;13.95;50.16;98502.78;5056170;28;20032;-77
2021/01/24 10:24:40;;;;;;;4.07;1.85;;;;;;;14.47;49.67;98582.78;5056363;28;20445;-78
2021/01/24 10:27:05;;;;;;;4.18;1.35;;;;;;;14.21;49.79;98531.66;5056183;28;20017;-79
2021/01/24 10:29:31;;;;;;;2.97;2.15;;;;;;;14.08;49.81;98484.03;5056194;28;20412;-82
2021/01/24 10:31:56;;;;;;;4.55;1.63;;;;;;;14.02;49.29;98465.53;5056003;28;20033;-79
2021/01/24 10:34:21;;;;;;;3.80;1.67;;;;;;;14.67;48.83;98567.34;5037869;28;20154;-80
2021/01/24 10:36:47;;;;;;;2.40;2.03;;;;;;;14.73;48.74;98570.94;5056037;28;20079;-78
2021/01/24 10:39:12;;;;;;;3.05;1.90;;;;;;;14.12;48.13;98463.97;5038159;28;20079;-81
2021/01/24 10:41:38;;;;;;;2.35;1.40;;;;;;;14.17;48.28;98476.56;5038331;28;20028;-77
2021/01/24 10:44:03;;;;;;;2.85;1.55;;;;;;;14.05;48.23;98435.88;5055692;28;20070;-79
2021/01/24 10:46:28;;;;;;;2.63;1.58;;;;;;;14.89;47.38;98563.13;5055701;28;20067;-76
2021/01/24 10:48:54;;;;;;;2.38;1.27;;;;;;;14.54;47.55;98501.16;5038359;28;20029;-76
2021/01/24 10:51:19;;;;;;;2.50;1.50;;;;;;;14.74;47.68;98522.06;5038560;28;20028;-77
2021/01/24 10:53:45;;;;;;;4.38;1.40;;;;;;;15.08;46.81;98555.88;5055852;28;20028;-79
2021/01/24 10:56:10;;;;;;;3.10;2.15;;;;;;;15.05;46.52;98548.34;5038372;28;20554;-85
2021/01/24 10:58:35;;;;;;;3.58;1.80;;;;;;;15.14;46.70;98554.13;5055824;28;20021;-83
2021/01/24 11:01:01;;;;;;;2.13;1.50;;;;;;;14.96;46.60;98525.81;5055582;28;20126;-82
2021/01/24 11:03:26;;;;;;;1.55;1.20;;;;;;;15.21;46.12;98555.63;5055549;28;20163;-83
2021/01/24 11:05:51;;;;;;;4.00;1.92;;;;;;;15.11;45.94;98547.44;5055454;28;20343;-80
2021/01/24 11:08:17;;;;;;;3.25;1.60;;;;;;;15.08;46.11;98542.56;5038172;28;20099;-85
2021/01/24 11:10:42;;;;;;;3.55;1.77;;;;;;;14.93;46.22;98519.13;5038151;28;20025;-82
2021/01/24 11:13:08;;;;;;;2.40;1.70;;;;;;;15.32;45.32;98555.84;5055814;28;20031;-84
2021/01/24 11:15:33;;;;;;;3.65;1.90;;;;;;;15.31;45.42;98546.25;5056542;28;20021;-85
2021/01/24 11:17:58;;;;;;;4.28;2.60;;;;;;;15.28;45.38;98552.84;5055486;28;20104;-86
2021/01/24 11:20:24;;;;;;;3.80;1.90;;;;;;;15.29;45.29;98551.00;5055285;28;20104;-87
2021/01/24 11:22:49;;;;;;;3.70;2.30;;;;;;;14.58;45.33;98447.34;5037596;28;20048;-86
2021/01/24 11:25:15;;;;;;;3.30;2.22;;;;;;;15.16;45.08;98533.44;5055108;28;20401;-82
2021/01/24 11:27:41;;;;;;;1.73;1.40;;;;;;;15.12;44.72;98532.28;5055348;28;20029;-84
2021/01/24 11:30:10;;;;;;;2.50;1.00;;;;;;;15.19;44.06;98536.44;5055002;28;20020;-88
2021/01/24 11:32:37;;;;;;;3.03;1.48;;;;;;;15.22;43.90;98546.63;5055025;28;20104;-81
2021/01/24 11:35:04;;;;;;;1.75;1.10;;;;;;;14.79;43.57;98479.69;5054825;28;20023;-84
2021/01/24 11:37:30;;;;;;;1.35;0.90;;;;;;;15.15;42.78;98540.63;5054936;28;20021;-85